createdAt,value
2023-06-14T00:01:36.567Z,100015.28
2023-06-14T00:04:04.113Z,100019.50
2023-06-14T00:06:31.878Z,100019.13
2023-06-14T00:08:59.374Z,100022.47
2023-06-14T00:11:27.763Z,100024.78
2023-06-14T00:13:55.260Z,100027.84
2023-06-14T00:16:23.828Z,100030.38
2023-06-14T00:18:52.955Z,100032.94
2023-06-14T00:21:20.931Z,100042.50
2023-06-14T00:26:37.256Z,100032.03
2023-06-14T00:29:04.862Z,100034.25
2023-06-14T00:31:32.424Z,100029.31
2023-06-14T00:34:01.395Z,100036.88
2023-06-14T00:36:28.870Z,100039.56
2023-06-14T00:38:56.363Z,100042.69
2023-06-14T00:41:23.840Z,100045.47
2023-06-14T00:43:51.322Z,100047.41
2023-06-14T00:46:20.261Z,100049.50
2023-06-14T00:48:47.927Z,100042.69
2023-06-14T00:51:16.764Z,100046.38
2023-06-14T00:53:47.794Z,100045.84
2023-06-14T00:56:15.818Z,100049.03
2023-06-14T00:58:43.995Z,100042.81
2023-06-14T01:04:14.370Z,100042.50
2023-06-14T01:07:04.065Z,100044.38
2023-06-14T01:09:41.804Z,100042.59
2023-06-14T01:12:13.770Z,100046.84
2023-06-14T01:14:41.548Z,100045.81
2023-06-14T01:19:49.744Z,100054.03
2023-06-14T01:22:18.803Z,100042.09
2023-06-14T01:24:47.630Z,100052.75
2023-06-14T01:27:16.659Z,100054.22
2023-06-14T01:29:46.818Z,100056.13
2023-06-14T01:32:16.497Z,100055.22
2023-06-14T01:34:44.100Z,100051.22
2023-06-14T01:37:12.555Z,100059.91
2023-06-14T01:39:40.083Z,100056.41
2023-06-14T01:42:09.246Z,100061.00
2023-06-14T01:44:36.974Z,100056.31
2023-06-14T01:47:04.740Z,100049.44
2023-06-14T01:49:35.334Z,100057.72
2023-06-14T01:52:02.991Z,100067.38
2023-06-14T01:54:31.902Z,100060.63
2023-06-14T01:56:59.518Z,100067.84
2023-06-14T01:59:28.422Z,100070.50
2023-06-14T02:01:56.055Z,100067.13
2023-06-14T02:04:23.780Z,100069.25
2023-06-14T02:09:50.657Z,100069.16
2023-06-14T02:12:18.241Z,100074.06
2023-06-14T02:14:47.080Z,100072.47
2023-06-14T02:17:14.650Z,100070.50
2023-06-14T02:19:42.508Z,100075.84
2023-06-14T02:22:10.049Z,100074.81
2023-06-14T02:24:37.543Z,100074.69
2023-06-14T02:27:09.467Z,100075.56
2023-06-14T02:29:37.949Z,100080.91
2023-06-14T02:32:08.357Z,100085.19
2023-06-14T02:34:59.821Z,100077.69
2023-06-14T02:37:27.290Z,100079.44
2023-06-14T02:42:57.211Z,100097.75
2023-06-14T02:45:24.683Z,100085.34
2023-06-14T02:47:53.505Z,100088.34
2023-06-14T02:53:19.233Z,100086.38
2023-06-14T02:55:47.844Z,100094.56
2023-06-14T02:58:19.262Z,100095.75
2023-06-14T03:00:47.026Z,100099.72
2023-06-14T03:03:17.213Z,100103.41
2023-06-14T03:05:52.088Z,100103.28
2023-06-14T03:08:28.009Z,100108.22
2023-06-14T03:13:34.324Z,100104.72
2023-06-14T03:19:00.609Z,100109.75
2023-06-14T03:21:31.990Z,100100.69
2023-06-14T03:24:01.634Z,100100.38
2023-06-14T03:26:32.216Z,100108.19
2023-06-14T03:32:04.619Z,100108.00
2023-06-14T03:34:40.243Z,100115.63
2023-06-14T03:40:14.555Z,100121.25
2023-06-14T03:42:44.032Z,100116.09
2023-06-14T03:48:01.757Z,100125.69
2023-06-14T03:50:33.140Z,100123.69
2023-06-14T03:53:02.256Z,100124.66
2023-06-14T03:58:03.491Z,100138.66
2023-06-14T04:00:31.078Z,100139.78
2023-06-14T04:02:58.739Z,100145.84
2023-06-14T04:05:27.461Z,100147.44
2023-06-14T04:07:58.049Z,100143.34
2023-06-14T04:10:25.994Z,100150.44
2023-06-14T04:12:54.189Z,100153.31
2023-06-14T04:15:22.345Z,100151.00
2023-06-14T04:18:09.677Z,100165.13
2023-06-14T04:20:37.207Z,100165.25
2023-06-14T04:23:18.897Z,100159.41
2023-06-14T04:25:48.180Z,100171.81
2023-06-14T04:28:16.769Z,100171.28
2023-06-14T04:30:45.602Z,100166.97
2023-06-14T04:33:13.147Z,100171.94
2023-06-14T04:38:43.889Z,100168.63
2023-06-14T04:41:12.631Z,100173.06
2023-06-14T04:43:41.532Z,100182.34
2023-06-14T04:49:09.337Z,100178.25
2023-06-14T04:51:37.954Z,100190.28
2023-06-14T04:54:11.195Z,100190.06
2023-06-14T04:56:39.310Z,100195.03
2023-06-14T04:59:07.082Z,100202.53
2023-06-14T05:01:35.776Z,100200.22
2023-06-14T05:04:03.481Z,100196.38
2023-06-14T05:06:31.644Z,100199.16
2023-06-14T05:11:45.130Z,100200.28
2023-06-14T05:14:13.995Z,100204.03
2023-06-14T05:16:42.084Z,100201.41
2023-06-14T05:19:09.604Z,100200.00
2023-06-14T05:24:36.337Z,100195.69
2023-06-14T05:27:05.451Z,100202.03
2023-06-14T05:29:32.979Z,100193.81
2023-06-14T05:35:03.246Z,100190.56
2023-06-14T05:37:31.878Z,100197.00
2023-06-14T05:39:59.532Z,100188.81
2023-06-14T05:42:28.354Z,100192.50
2023-06-14T05:44:56.541Z,100188.00
2023-06-14T05:47:24.083Z,100196.06
2023-06-14T05:49:55.022Z,100199.00
2023-06-14T05:52:22.520Z,100204.84
2023-06-14T05:54:50.146Z,100203.59
2023-06-14T05:57:17.650Z,100212.41
2023-06-14T05:59:46.438Z,100215.84
2023-06-14T06:02:13.981Z,100211.25
2023-06-14T06:07:41.282Z,100215.22
2023-06-14T06:10:09.334Z,100222.56
2023-06-14T06:12:36.874Z,100225.88
2023-06-14T06:15:07.188Z,100225.03
2023-06-14T06:17:50.397Z,100220.75
2023-06-14T06:20:28.441Z,100227.03
2023-06-14T06:22:56.320Z,100217.34
2023-06-14T06:25:27.253Z,100222.97
2023-06-14T06:27:54.889Z,100222.72
2023-06-14T06:30:23.775Z,100229.13
2023-06-14T06:32:51.763Z,100217.56
2023-06-14T06:38:19.678Z,100227.63
2023-06-14T06:40:48.069Z,100225.09
2023-06-14T06:43:18.944Z,100224.13
2023-06-14T06:45:50.327Z,100223.38
2023-06-14T06:48:18.154Z,100227.78
2023-06-14T06:50:45.660Z,100229.44
2023-06-14T06:53:15.185Z,100230.44
2023-06-14T06:55:45.976Z,100235.66
2023-06-14T07:01:03.631Z,100235.66
2023-06-14T07:03:31.224Z,100239.22
2023-06-14T07:05:59.352Z,100238.09
2023-06-14T07:08:26.941Z,100236.31
2023-06-14T07:10:54.435Z,100234.13
2023-06-14T07:13:22.104Z,100241.72
2023-06-14T07:15:49.717Z,100234.31
2023-06-14T07:21:21.142Z,100233.59
2023-06-14T07:23:48.963Z,100240.44
2023-06-14T07:26:16.650Z,100242.06
2023-06-14T07:28:46.109Z,100246.41
2023-06-14T07:31:14.100Z,100242.59
2023-06-14T07:36:45.385Z,100252.72
2023-06-14T07:39:13.054Z,100254.06
2023-06-14T07:41:40.606Z,100250.78
2023-06-14T07:44:08.080Z,100253.97
2023-06-14T07:46:36.305Z,100249.13
2023-06-14T07:49:04.143Z,100249.13
2023-06-14T07:51:31.742Z,100247.31
2023-06-14T07:54:01.913Z,100255.00
2023-06-14T07:56:29.430Z,100258.41
2023-06-14T07:58:56.942Z,100257.34
2023-06-14T08:01:26.409Z,100255.97
2023-06-14T08:06:52.926Z,100265.78
2023-06-14T08:09:21.865Z,100263.25
2023-06-14T08:12:14.503Z,100265.56
2023-06-14T08:14:42.090Z,100260.88
2023-06-14T08:17:09.559Z,100263.25
2023-06-14T08:19:37.714Z,100266.09
2023-06-14T08:22:05.750Z,100264.44
2023-06-14T08:24:34.707Z,100258.84
2023-06-14T08:27:02.998Z,100268.50
2023-06-14T08:29:31.793Z,100262.81
2023-06-14T08:31:59.506Z,100267.97
2023-06-14T08:34:27.276Z,100256.72
2023-06-14T08:37:07.937Z,100258.97
2023-06-14T08:39:36.854Z,100258.69
2023-06-14T08:42:08.865Z,100266.72
2023-06-14T08:44:39.862Z,100268.81
2023-06-14T08:47:08.025Z,100256.53
2023-06-14T08:49:36.588Z,100259.81
2023-06-14T08:52:07.932Z,100262.78
2023-06-14T08:54:44.579Z,100267.69
2023-06-14T09:00:13.978Z,100269.47
2023-06-14T09:02:44.419Z,100256.78
2023-06-14T09:05:14.462Z,100259.19
2023-06-14T09:07:43.047Z,100270.19
2023-06-14T09:10:13.622Z,100267.03
2023-06-14T09:12:41.485Z,100269.22
2023-06-14T09:15:32.981Z,100269.78
2023-06-14T09:18:03.157Z,100278.25
2023-06-14T09:20:31.743Z,100280.00
2023-06-14T09:22:59.794Z,100282.00
2023-06-14T09:25:39.647Z,100279.75
2023-06-14T09:28:09.837Z,100282.78
2023-06-14T09:30:38.398Z,100277.03
2023-06-14T09:33:05.967Z,100282.78
2023-06-14T09:35:34.000Z,100278.72
2023-06-14T09:38:01.797Z,100293.78
2023-06-14T09:40:30.653Z,100280.19
2023-06-14T09:43:00.451Z,100287.19
2023-06-14T09:48:18.777Z,100281.44
2023-06-14T09:50:48.110Z,100282.25
2023-06-14T09:53:16.429Z,100278.09
2023-06-14T09:55:45.390Z,100281.78
2023-06-14T09:58:14.073Z,100272.91
2023-06-14T10:00:42.496Z,100278.09
2023-06-14T10:03:14.885Z,100284.59
2023-06-14T10:08:42.465Z,100278.63
2023-06-14T10:11:11.439Z,100275.56
2023-06-14T10:13:51.961Z,100268.41
2023-06-14T10:16:25.569Z,100275.88
2023-06-14T10:19:19.607Z,100266.63
2023-06-14T10:21:56.587Z,100276.13
2023-06-14T10:24:30.296Z,100270.94
2023-06-14T10:27:00.477Z,100265.72
2023-06-14T10:29:32.730Z,100278.50
2023-06-14T10:32:01.774Z,100267.78
2023-06-14T10:34:30.595Z,100270.69
2023-06-14T10:37:03.750Z,100275.66
2023-06-14T10:42:10.997Z,100266.94
2023-06-14T10:44:43.099Z,100274.25
2023-06-14T10:47:13.808Z,100270.81
2023-06-14T10:49:44.011Z,100268.81
2023-06-14T10:52:17.979Z,100263.63
2023-06-14T10:57:58.897Z,100259.50
2023-06-14T11:00:29.308Z,100256.78
2023-06-14T11:03:30.437Z,100263.34
2023-06-14T11:05:59.279Z,100270.72
2023-06-14T11:08:38.828Z,100258.97
2023-06-14T11:11:08.613Z,100249.97
2023-06-14T11:13:38.953Z,100257.06
2023-06-14T11:16:12.439Z,100261.41
2023-06-14T11:18:40.016Z,100256.94
2023-06-14T11:21:08.006Z,100253.22
2023-06-14T11:23:35.495Z,100255.31
2023-06-14T11:29:03.243Z,100249.00
2023-06-14T11:31:31.381Z,100232.69
2023-06-14T11:33:59.918Z,100238.50
2023-06-14T11:36:30.619Z,100239.06
2023-06-14T11:39:01.313Z,100249.41
2023-06-14T11:41:45.149Z,100236.59
2023-06-14T11:44:14.401Z,100242.31
2023-06-14T11:46:53.221Z,100247.47
2023-06-14T11:49:20.890Z,100242.88
2023-06-14T11:51:48.391Z,100228.16
2023-06-14T11:54:41.913Z,100240.44
2023-06-14T11:57:09.819Z,100243.66
2023-06-14T11:59:41.651Z,100253.19
2023-06-14T12:02:09.916Z,100250.09
2023-06-14T12:04:37.525Z,100249.09
2023-06-14T12:07:13.222Z,100234.69
2023-06-14T12:09:40.689Z,100241.22
2023-06-14T12:12:09.252Z,100241.53
2023-06-14T12:14:36.845Z,100234.66
2023-06-14T12:17:08.839Z,100221.31
2023-06-14T12:19:44.292Z,100228.41
2023-06-14T12:22:12.470Z,100226.50
2023-06-14T12:24:40.335Z,100228.72
2023-06-14T12:27:08.329Z,100230.72
2023-06-14T12:29:35.982Z,100226.47
2023-06-14T12:32:03.580Z,100223.72
2023-06-14T12:34:32.424Z,100221.84
2023-06-14T12:37:00.291Z,100227.31
2023-06-14T12:39:29.000Z,100210.09
2023-06-14T12:41:56.617Z,100218.31
2023-06-14T12:44:24.093Z,100221.50
2023-06-14T12:46:53.065Z,100230.06
2023-06-14T12:49:21.166Z,100217.47
2023-06-14T12:51:50.362Z,100224.00
2023-06-14T12:54:28.432Z,100216.94
2023-06-14T12:57:04.316Z,100223.03
2023-06-14T12:59:33.992Z,100228.56
2023-06-14T13:02:12.840Z,100216.53
2023-06-14T13:04:40.454Z,100221.56
2023-06-14T13:07:09.746Z,100220.00
2023-06-14T13:09:37.265Z,100232.19
2023-06-14T13:15:03.458Z,100227.84
2023-06-14T13:17:30.971Z,100227.34
2023-06-14T13:22:58.728Z,100230.28
2023-06-14T13:25:26.339Z,100217.31
2023-06-14T13:27:53.880Z,100222.44
2023-06-14T13:30:21.839Z,100222.81
2023-06-14T13:32:50.685Z,100225.56
2023-06-14T13:38:15.831Z,100213.00
2023-06-14T13:40:43.512Z,100214.19
2023-06-14T13:43:11.161Z,100218.03
2023-06-14T13:45:38.809Z,100219.88
2023-06-14T13:51:09.360Z,100212.16
2023-06-14T13:53:38.211Z,100230.59
2023-06-14T13:56:06.016Z,100226.56
2023-06-14T13:58:33.541Z,100221.66
2023-06-14T14:01:02.458Z,100220.59
2023-06-14T14:03:29.993Z,100225.88
2023-06-14T14:05:57.615Z,100210.03
2023-06-14T14:08:25.687Z,100209.97
2023-06-14T14:10:54.505Z,100209.84
2023-06-14T14:13:22.830Z,100210.63
2023-06-14T14:15:51.973Z,100213.03
2023-06-14T14:18:19.743Z,100210.66
2023-06-14T14:20:47.407Z,100211.78
2023-06-14T14:23:14.987Z,100211.22
2023-06-14T14:28:48.299Z,100214.16
2023-06-14T14:31:16.093Z,100221.13
2023-06-14T14:33:43.606Z,100210.38
2023-06-14T14:36:11.138Z,100215.19
2023-06-14T14:41:41.379Z,100210.41
2023-06-14T14:44:11.289Z,100222.13
2023-06-14T14:49:27.361Z,100204.28
2023-06-14T14:51:54.903Z,100209.56
2023-06-14T14:57:24.895Z,100212.44
2023-06-14T14:59:53.711Z,100214.44
2023-06-14T15:02:21.256Z,100205.94
2023-06-14T15:07:51.471Z,100206.47
2023-06-14T15:10:19.336Z,100211.69
2023-06-14T15:12:59.113Z,100200.50
2023-06-14T15:15:27.911Z,100206.47
2023-06-14T15:20:31.754Z,100211.88
2023-06-14T15:23:00.365Z,100200.53
2023-06-14T15:25:28.297Z,100200.56
2023-06-14T15:27:55.892Z,100204.09
2023-06-14T15:30:24.169Z,100206.00
2023-06-14T15:32:53.037Z,100209.28
2023-06-14T15:35:20.529Z,100204.78
2023-06-14T15:37:50.064Z,100213.19
2023-06-14T15:43:06.408Z,100212.31
2023-06-14T15:45:34.139Z,100206.25
2023-06-14T15:48:16.151Z,100211.56
2023-06-14T15:50:43.876Z,100203.81
2023-06-14T15:55:48.554Z,100203.38
2023-06-14T15:58:16.353Z,100201.28
2023-06-14T16:03:20.896Z,100192.72
2023-06-14T16:08:40.467Z,100201.41
2023-06-14T16:14:11.692Z,100203.88
2023-06-14T16:16:39.198Z,100198.03
2023-06-14T16:19:09.097Z,100189.13
2023-06-14T16:21:37.825Z,100192.53
2023-06-14T16:27:10.020Z,100190.22
2023-06-14T16:29:37.722Z,100193.34
2023-06-14T16:32:05.980Z,100188.78
2023-06-14T16:34:36.346Z,100190.41
2023-06-14T16:40:02.501Z,100188.00
2023-06-14T16:42:29.988Z,100185.34
2023-06-14T16:44:59.198Z,100200.81
2023-06-14T16:47:26.740Z,100189.28
2023-06-14T16:52:53.211Z,100198.38
2023-06-14T16:55:20.693Z,100200.09
2023-06-14T16:57:48.173Z,100191.53
2023-06-14T17:00:16.667Z,100201.94
2023-06-14T17:05:56.405Z,100199.78
2023-06-14T17:11:27.798Z,100201.13
2023-06-14T17:13:55.290Z,100207.59
2023-06-14T17:16:23.269Z,100204.63
2023-06-14T17:18:50.851Z,100209.19
2023-06-14T17:24:24.938Z,100209.09
2023-06-14T17:26:54.959Z,100209.59
2023-06-14T17:29:25.044Z,100209.31
2023-06-14T17:31:52.746Z,100214.66
2023-06-14T17:37:16.034Z,100217.59
2023-06-14T17:39:43.620Z,100219.66
2023-06-14T17:42:17.152Z,100221.94
2023-06-14T17:44:46.539Z,100218.22
2023-06-14T17:47:36.306Z,100220.94
2023-06-14T17:50:04.984Z,100220.41
2023-06-14T17:55:35.695Z,100219.56
2023-06-14T17:58:03.983Z,100219.00
2023-06-14T18:00:33.042Z,100222.91
2023-06-14T18:03:01.419Z,100218.50
2023-06-14T18:08:27.481Z,100221.38
2023-06-14T18:10:55.144Z,100228.34
2023-06-14T18:13:22.589Z,100221.16
2023-06-14T18:15:51.456Z,100225.63
2023-06-14T18:21:22.086Z,100233.84
2023-06-14T18:23:53.899Z,100231.22
2023-06-14T18:26:23.275Z,100235.31
2023-06-14T18:28:52.055Z,100229.94
2023-06-14T18:34:17.274Z,100237.44
2023-06-14T18:36:44.886Z,100243.97
2023-06-14T18:42:12.148Z,100237.72
2023-06-14T18:44:39.736Z,100236.84
2023-06-14T18:47:07.756Z,100235.84
2023-06-14T18:52:32.795Z,100236.84
2023-06-14T18:57:27.804Z,100238.97
2023-06-14T18:59:55.297Z,100239.81
2023-06-14T19:02:22.765Z,100238.56
2023-06-14T19:07:39.755Z,100243.97
2023-06-14T19:10:08.210Z,100249.25
2023-06-14T19:12:35.772Z,100249.56
2023-06-14T19:15:13.573Z,100255.84
2023-06-14T19:17:41.383Z,100254.38
2023-06-14T19:20:09.869Z,100262.09
2023-06-14T19:22:38.048Z,100252.63
2023-06-14T19:25:11.512Z,100255.81
2023-06-14T19:27:39.008Z,100254.00
2023-06-14T19:30:08.040Z,100262.84
2023-06-14T19:32:36.583Z,100255.63
2023-06-14T19:35:04.410Z,100262.34
2023-06-14T19:37:32.739Z,100267.41
2023-06-14T19:40:01.145Z,100266.69
2023-06-14T19:42:30.058Z,100271.69
2023-06-14T19:44:57.691Z,100269.25
2023-06-14T19:47:26.112Z,100279.03
2023-06-14T19:49:53.884Z,100276.38
2023-06-14T19:52:24.229Z,100278.31
2023-06-14T19:54:54.092Z,100275.69
2023-06-14T20:00:04.065Z,100276.94
2023-06-14T20:03:00.861Z,100287.56
2023-06-14T20:05:31.285Z,100290.72
2023-06-14T20:11:01.776Z,100295.69
2023-06-14T20:13:29.304Z,100299.78
2023-06-14T20:15:58.293Z,100299.97
2023-06-14T20:18:25.821Z,100304.13
2023-06-14T20:20:53.762Z,100308.84
2023-06-14T20:23:21.265Z,100311.91
2023-06-14T20:25:52.006Z,100309.81
2023-06-14T20:28:20.128Z,100305.22
2023-06-14T20:30:47.739Z,100312.22
2023-06-14T20:33:16.559Z,100311.34
2023-06-14T20:35:44.032Z,100308.81
2023-06-14T20:38:11.536Z,100309.03
2023-06-14T20:40:39.068Z,100305.84
2023-06-14T20:43:08.359Z,100309.91
2023-06-14T20:45:36.183Z,100309.47
2023-06-14T20:48:04.127Z,100310.44
2023-06-14T20:50:32.984Z,100308.84
2023-06-14T20:53:00.472Z,100317.53
2023-06-14T20:58:27.218Z,100313.56
2023-06-14T21:00:54.709Z,100306.53
2023-06-14T21:03:22.330Z,100312.44
2023-06-14T21:05:52.310Z,100319.25
2023-06-14T21:08:19.790Z,100321.00
2023-06-14T21:10:47.340Z,100320.22
2023-06-14T21:13:14.864Z,100315.34
2023-06-14T21:15:42.562Z,100314.81
2023-06-14T21:18:11.754Z,100308.88
2023-06-14T21:20:39.572Z,100311.97
2023-06-14T21:23:08.482Z,100303.16
2023-06-14T21:28:41.202Z,100307.41
2023-06-14T21:31:10.354Z,100306.59
2023-06-14T21:33:37.831Z,100311.34
2023-06-14T21:36:06.459Z,100311.06
2023-06-14T21:38:35.245Z,100312.31
2023-06-14T21:41:02.782Z,100310.91
2023-06-14T21:43:30.553Z,100311.66
2023-06-14T21:45:58.050Z,100310.38
2023-06-14T21:48:25.551Z,100305.69
2023-06-14T21:50:53.214Z,100310.97
2023-06-14T21:53:20.759Z,100302.56
2023-06-14T21:55:49.610Z,100302.06
2023-06-14T21:58:17.486Z,100303.44
2023-06-14T22:00:45.037Z,100298.44
2023-06-14T22:03:12.619Z,100306.16
2023-06-14T22:05:40.460Z,100309.50
2023-06-14T22:08:09.448Z,100310.22
2023-06-14T22:10:38.465Z,100309.94
2023-06-14T22:13:10.347Z,100300.91
2023-06-14T22:15:37.879Z,100303.06
2023-06-14T22:21:07.788Z,100302.41
2023-06-14T22:23:37.669Z,100302.38
2023-06-14T22:26:06.386Z,100303.94
2023-06-14T22:28:40.617Z,100306.31
2023-06-14T22:31:10.598Z,100304.34
2023-06-14T22:33:40.416Z,100306.56
2023-06-14T22:36:10.160Z,100309.50
2023-06-14T22:38:40.668Z,100305.78
2023-06-14T22:41:09.271Z,100314.78
2023-06-14T22:43:53.176Z,100325.41
2023-06-14T22:46:24.256Z,100327.81
2023-06-14T22:48:52.753Z,100325.25
2023-06-14T22:51:24.545Z,100328.38
2023-06-14T22:53:52.687Z,100326.59
2023-06-14T22:59:03.346Z,100328.78
2023-06-14T23:01:32.270Z,100320.28
2023-06-14T23:04:04.668Z,100323.66
2023-06-14T23:06:33.738Z,100329.09
2023-06-14T23:09:16.244Z,100322.53
2023-06-14T23:11:44.540Z,100314.19
2023-06-14T23:14:12.085Z,100322.25
2023-06-14T23:16:41.699Z,100322.00
2023-06-14T23:19:09.700Z,100322.00
2023-06-14T23:21:37.220Z,100317.66
2023-06-14T23:27:11.364Z,100317.41
2023-06-14T23:29:39.218Z,100317.00
2023-06-14T23:32:10.528Z,100324.00
2023-06-14T23:34:38.075Z,100323.00
2023-06-14T23:37:06.098Z,100323.00
2023-06-14T23:42:32.666Z,100336.47
2023-06-14T23:45:01.560Z,100325.63
2023-06-14T23:47:31.615Z,100329.81
2023-06-14T23:49:59.284Z,100324.94
2023-06-14T23:55:30.706Z,100319.66
2023-06-14T23:57:58.496Z,100320.97
